This is the latest recevied weather packets stored in our database for station/object OE3EMC-13. If no packets are shown the sender has not sent any weather packets the latest 1 day(s).
| Time | Temp. | Humidity | Pressure | Rain* | Wind** | Luminosity | Snow |
|---|---|---|---|---|---|---|---|
| 1777987991 | 26.67° C | 27% | 1100 hPa | 0 mm | 1.79 m/s, 337° | - | - |
| 1777987390 | 26.67° C | 27% | 1100 hPa | 0 mm | 1.79 m/s, 337° | - | - |
| 1777986789 | 26.67° C | 27% | 1100 hPa | 0 mm | 1.34 m/s, 157° | - | - |
| 1777986190 | 26.67° C | 27% | 1100 hPa | 0 mm | 1.34 m/s, 157° | - | - |
| 1777985595 | 27.22° C | 28% | 1100 hPa | 0 mm | 1.34 m/s, 337° | - | - |
| 1777984995 | 27.22° C | 28% | 1100 hPa | 0 mm | 1.34 m/s, 337° | - | - |
| 1777984394 | 27.78° C | 30% | 1100 hPa | 0 mm | 1.79 m/s, 337° | - | - |
| 1777983794 | 27.78° C | 30% | 1100 hPa | 0 mm | 1.79 m/s, 337° | - | - |
| 1777983195 | 27.78° C | 30% | 1100 hPa | 0 mm | 1.34 m/s, 315° | - | - |
| 1777982595 | 27.78° C | 30% | 1100 hPa | 0 mm | 1.34 m/s, 315° | - | - |
| 1777981995 | 27.22° C | 31% | 1100 hPa | 0 mm | 0.89 m/s, 360° | - | - |
| 1777981394 | 27.22° C | 31% | 1100 hPa | 0 mm | 0.89 m/s, 360° | - | - |
| 1777980794 | 26.11° C | 36% | 1100 hPa | 0 mm | 1.34 m/s, 67° | - | - |
| 1777980195 | 26.11° C | 36% | 1100 hPa | 0 mm | 1.34 m/s, 67° | - | - |
| 1777979593 | 27.78° C | 29% | 1100 hPa | 0 mm | 1.79 m/s, 157° | - | - |
| 1777978993 | 27.78° C | 29% | 1100 hPa | 0 mm | 1.79 m/s, 157° | - | - |
| 1777978392 | 26.67° C | 32% | 1100 hPa | 0 mm | 0.89 m/s, 337° | - | - |
| 1777977793 | 26.67° C | 32% | 1100 hPa | 0 mm | 0.89 m/s, 337° | - | - |
| 1777977192 | 26.67° C | 31% | 1100 hPa | 0 mm | 1.34 m/s, 67° | - | - |
| 1777976592 | 26.67° C | 31% | 1100 hPa | 0 mm | 1.34 m/s, 67° | - | - |
| 1777975992 | 26.11° C | 34% | 1100 hPa | 0 mm | 0.89 m/s, 135° | - | - |
| 1777975393 | 26.11° C | 34% | 1100 hPa | 0 mm | 0.89 m/s, 135° | - | - |
| 1777974791 | 25.56° C | 32% | 1100 hPa | 0 mm | 1.34 m/s, 90° | - | - |
| 1777974192 | 25.56° C | 32% | 1100 hPa | 0 mm | 1.34 m/s, 90° | - | - |
| 1777973592 | 24.44° C | 35% | 1100 hPa | 0 mm | 0.89 m/s, 202° | - | - |
* Rain latest hour (hover to see other rain measurements)
** Current wind speed in m/s (hover to see current wind gust speed)